createdAt,value
2023-02-11T07:42:20.521Z,95911.88
2023-02-11T07:42:52.667Z,95909.63
2023-02-11T07:45:02.693Z,95908.16
2023-02-11T07:45:34.069Z,95897.75
2023-02-11T07:46:05.459Z,95895.06
2023-02-11T07:46:36.974Z,95902.44
2023-02-11T07:47:08.700Z,95904.41
2023-02-11T07:47:40.196Z,95899.75
2023-02-11T07:48:11.714Z,95894.72
2023-02-11T07:48:50.567Z,95897.94
2023-02-11T07:49:22.077Z,95906.59
2023-02-11T07:49:56.189Z,95904.25
2023-02-11T07:50:28.088Z,95904.34
2023-02-11T07:50:59.736Z,95901.41
2023-02-11T07:51:31.181Z,95901.31
2023-02-11T07:52:02.683Z,95895.84
2023-02-11T07:52:34.092Z,95901.31
2023-02-11T07:53:05.482Z,95912.16
2023-02-11T07:53:37.023Z,95904.09
2023-02-11T07:54:08.552Z,95906.09
2023-02-11T07:54:40.009Z,95908.44
2023-02-11T07:55:11.407Z,95909.28
2023-02-11T07:55:43.154Z,95909.38
2023-02-11T07:56:15.989Z,95906.34
2023-02-11T07:56:49.178Z,95903.22
2023-02-11T07:57:20.695Z,95913.28
2023-02-11T07:57:53.057Z,95904.16
2023-02-11T07:58:24.551Z,95902.94
2023-02-11T07:58:56.083Z,95908.31
2023-02-11T07:59:27.541Z,95908.31
2023-02-11T07:59:59.036Z,95905.38
2023-02-11T08:00:30.450Z,95907.28
2023-02-11T08:01:01.851Z,95909.28
2023-02-11T08:01:33.278Z,95905.72
2023-02-11T08:02:06.734Z,95908.50
2023-02-11T08:02:38.903Z,95904.31
2023-02-11T08:03:10.363Z,95909.00
2023-02-11T08:03:41.780Z,95917.84
2023-02-11T08:04:13.186Z,95909.78
2023-02-11T08:04:44.584Z,95909.06
2023-02-11T08:05:16.028Z,95911.44
2023-02-11T08:05:48.647Z,95909.50
2023-02-11T08:06:20.225Z,95910.28
2023-02-11T08:06:51.639Z,95906.47
2023-02-11T08:07:22.994Z,95903.69
2023-02-11T08:07:55.602Z,95908.72
2023-02-11T08:08:27.106Z,95907.97
2023-02-11T08:08:58.549Z,95907.53
2023-02-11T08:09:31.198Z,95899.47
2023-02-11T08:10:04.199Z,95900.66
2023-02-11T08:10:35.635Z,95903.69
2023-02-11T08:11:07.139Z,95906.81
2023-02-11T08:11:38.717Z,95900.59
2023-02-11T08:12:10.993Z,95905.00
2023-02-11T08:12:42.458Z,95906.13
2023-02-11T08:13:15.024Z,95906.81
2023-02-11T08:13:46.460Z,95908.38
2023-02-11T08:14:17.966Z,95910.56
2023-02-11T08:14:49.411Z,95907.16
2023-02-11T08:15:20.893Z,95903.69
2023-02-11T08:15:54.122Z,95905.44
2023-02-11T08:16:27.200Z,95898.78
2023-02-11T08:16:58.751Z,95906.34
2023-02-11T08:17:31.214Z,95899.31
2023-02-11T08:18:04.655Z,95900.97
2023-02-11T08:18:36.798Z,95900.38
2023-02-11T08:19:08.479Z,95902.63
2023-02-11T08:20:29.259Z,95894.88
2023-02-11T08:21:01.279Z,95899.75
2023-02-11T08:21:34.493Z,95901.19
2023-02-11T08:22:06.117Z,95900.34
2023-02-11T08:22:37.595Z,95904.69
2023-02-11T08:23:10.530Z,95904.25
2023-02-11T08:23:42.616Z,95902.44
2023-02-11T08:24:14.207Z,95902.50
2023-02-11T08:24:46.302Z,95905.63
2023-02-11T08:25:18.028Z,95899.31
2023-02-11T08:25:50.046Z,95905.47
2023-02-11T08:26:22.179Z,95904.25
2023-02-11T08:26:53.871Z,95900.13
2023-02-11T08:27:25.509Z,95894.75
2023-02-11T08:27:56.984Z,95901.31
2023-02-11T08:28:28.622Z,95903.72
2023-02-11T08:29:00.151Z,95904.53
2023-02-11T08:29:31.804Z,95909.09
2023-02-11T08:30:04.300Z,95896.47
2023-02-11T08:30:35.698Z,95901.56
2023-02-11T08:31:07.194Z,95900.03
2023-02-11T08:31:39.851Z,95898.53
2023-02-11T08:32:13.021Z,95898.63
2023-02-11T08:32:44.370Z,95902.84
2023-02-11T08:33:16.772Z,95905.53
2023-02-11T08:33:49.628Z,95904.34
2023-02-11T08:34:21.028Z,95902.09
2023-02-11T08:34:52.478Z,95910.88
2023-02-11T08:35:24.004Z,95904.63
2023-02-11T08:35:56.802Z,95902.28
2023-02-11T08:36:28.289Z,95908.44
2023-02-11T08:36:59.747Z,95905.41
2023-02-11T08:37:33.153Z,95901.84
2023-02-11T08:38:04.921Z,95901.03
2023-02-11T08:38:37.536Z,95900.03
2023-02-11T08:39:18.563Z,95908.53
2023-02-11T08:39:53.314Z,95902.72
2023-02-11T08:40:24.816Z,95904.97
2023-02-11T08:40:58.093Z,95899.50
2023-02-11T08:41:29.521Z,95900.72
2023-02-11T08:42:00.931Z,95903.41
2023-02-11T08:42:33.975Z,95901.41
2023-02-11T08:43:08.164Z,95900.63
2023-02-11T08:43:39.659Z,95904.69
2023-02-11T08:44:11.312Z,95902.38
2023-02-11T08:44:42.728Z,95902.72
2023-02-11T08:45:14.118Z,95904.16
2023-02-11T08:45:45.556Z,95900.69
2023-02-11T08:46:18.589Z,95907.19
2023-02-11T08:46:50.135Z,95903.72
2023-02-11T08:47:21.539Z,95909.88
2023-02-11T08:47:52.934Z,95902.94
2023-02-11T08:48:24.295Z,95902.94
2023-02-11T08:48:55.740Z,95900.88
2023-02-11T08:49:28.140Z,95903.38
2023-02-11T08:49:59.675Z,95892.22
2023-02-11T08:50:32.311Z,95902.16
2023-02-11T08:52:48.892Z,95901.34
2023-02-11T08:53:20.899Z,95899.81
2023-02-11T08:53:56.474Z,95896.25
2023-02-11T08:54:29.343Z,95903.06
2023-02-11T08:55:02.848Z,95902.22
2023-02-11T08:55:40.266Z,95900.31
2023-02-11T08:57:56.149Z,95903.78
2023-02-11T08:58:28.793Z,95900.22
2023-02-11T08:59:01.566Z,95905.94
2023-02-11T08:59:33.947Z,95902.91
2023-02-11T09:00:07.358Z,95899.00
2023-02-11T09:00:40.193Z,95902.91
2023-02-11T09:01:12.749Z,95904.00
2023-02-11T09:01:49.071Z,95910.88
2023-02-11T09:02:21.635Z,95900.03
2023-02-11T09:02:54.863Z,95901.59
2023-02-11T09:03:27.691Z,95891.97
2023-02-11T09:03:59.479Z,95902.19
2023-02-11T09:04:30.879Z,95897.59
2023-02-11T09:05:03.848Z,95898.22
2023-02-11T09:05:47.219Z,95896.06
2023-02-11T09:06:19.920Z,95898.13
2023-02-11T09:06:52.744Z,95894.06
2023-02-11T09:07:27.400Z,95894.19
2023-02-11T09:07:58.816Z,95890.81
2023-02-11T09:08:31.791Z,95891.59
2023-02-11T09:09:03.157Z,95897.38
2023-02-11T09:09:34.678Z,95893.22
2023-02-11T09:10:07.330Z,95894.38
2023-02-11T09:10:40.201Z,95884.41
2023-02-11T09:11:12.652Z,95887.50
2023-02-11T09:14:11.026Z,95895.22
2023-02-11T09:14:43.557Z,95886.63
2023-02-11T09:15:20.177Z,95895.38
2023-02-11T09:15:53.968Z,95884.88
2023-02-11T09:16:26.301Z,95887.97
2023-02-11T09:17:06.924Z,95890.91
2023-02-11T09:17:39.469Z,95892.47
2023-02-11T09:18:12.933Z,95894.72
2023-02-11T09:18:44.588Z,95882.59
2023-02-11T09:19:17.092Z,95891.28
2023-02-11T09:19:49.997Z,95887.25
2023-02-11T09:20:23.780Z,95890.09
2023-02-11T09:20:56.151Z,95894.78
2023-02-11T09:21:29.003Z,95884.13
2023-02-11T09:22:00.579Z,95888.81
2023-02-11T09:22:32.934Z,95882.31
2023-02-11T09:23:05.942Z,95881.09
2023-02-11T09:23:38.873Z,95890.38
2023-02-11T09:24:12.015Z,95878.06
2023-02-11T09:24:44.469Z,95880.69
2023-02-11T09:25:17.848Z,95884.81
2023-02-11T09:25:49.442Z,95884.41
2023-02-11T09:26:22.554Z,95885.19
2023-02-11T09:26:55.061Z,95877.53
2023-02-11T09:27:26.942Z,95882.09
2023-02-11T09:27:59.491Z,95877.38
2023-02-11T09:28:31.714Z,95882.16
2023-02-11T09:29:05.059Z,95876.66
2023-02-11T09:29:44.365Z,95877.00
2023-02-11T09:30:16.095Z,95877.16
2023-02-11T09:30:47.780Z,95882.66
2023-02-11T09:31:23.841Z,95879.75
2023-02-11T09:31:56.969Z,95879.34
2023-02-11T09:32:30.219Z,95882.47
2023-02-11T09:33:03.608Z,95875.84
2023-02-11T09:33:36.531Z,95879.00
2023-02-11T09:34:10.505Z,95872.00
2023-02-11T09:34:43.965Z,95875.38
2023-02-11T09:35:16.709Z,95876.84
2023-02-11T09:35:49.896Z,95880.41
2023-02-11T09:36:22.813Z,95875.19
2023-02-11T09:36:57.285Z,95875.63
2023-02-11T09:37:30.539Z,95881.19
2023-02-11T09:38:03.775Z,95873.59
2023-02-11T09:38:36.515Z,95871.72
2023-02-11T09:39:10.005Z,95875.06
2023-02-11T09:39:42.979Z,95876.63
2023-02-11T09:40:16.324Z,95869.13
2023-02-11T09:40:50.093Z,95876.84
2023-02-11T09:41:23.073Z,95875.06
2023-02-11T09:41:55.910Z,95874.72
2023-02-11T09:42:28.683Z,95872.03
2023-02-11T09:43:04.032Z,95867.78
2023-02-11T09:50:15.620Z,95860.88
2023-02-11T09:50:48.813Z,95857.06
2023-02-11T09:51:21.829Z,95853.03
2023-02-11T09:51:54.954Z,95852.06
2023-02-11T09:52:27.886Z,95849.81
2023-02-11T09:53:00.394Z,95847.03
2023-02-11T09:53:33.626Z,95847.25
2023-02-11T09:54:06.486Z,95848.72
2023-02-11T09:59:58.406Z,95838.63
2023-02-11T10:00:31.134Z,95840.53
2023-02-11T10:01:03.706Z,95837.38
2023-02-11T10:01:44.584Z,95832.03
2023-02-11T10:02:27.211Z,95835.63
2023-02-11T10:03:02.199Z,95826.16
2023-02-11T10:03:40.179Z,95831.16
2023-02-11T10:04:13.615Z,95834.63
2023-02-11T10:04:46.850Z,95823.91
2023-02-11T10:06:57.835Z,95822.78
2023-02-11T10:07:31.267Z,95825.00
2023-02-11T10:08:02.893Z,95818.88
2023-02-11T10:08:34.310Z,95822.34
2023-02-11T10:09:05.760Z,95819.97
2023-02-11T10:09:38.419Z,95821.34
2023-02-11T10:10:09.979Z,95817.88
2023-02-11T10:10:41.510Z,95815.22
2023-02-11T10:11:25.959Z,95816.34
2023-02-11T10:12:02.122Z,95814.00
2023-02-11T10:12:33.577Z,95814.66
2023-02-11T10:13:06.342Z,95814.56
2023-02-11T10:13:42.112Z,95813.44
2023-02-11T10:14:13.932Z,95808.84
2023-02-11T10:14:46.220Z,95815.44
2023-02-11T10:15:17.621Z,95808.41
2023-02-11T10:15:49.204Z,95811.00
2023-02-11T10:16:20.700Z,95805.28
2023-02-11T10:16:52.700Z,95806.84
2023-02-11T10:17:24.205Z,95808.06
2023-02-11T10:17:56.736Z,95807.19
2023-02-11T10:18:29.237Z,95802.59
2023-02-11T10:19:03.009Z,95805.19
2023-02-11T10:19:35.279Z,95804.84
2023-02-11T10:20:07.838Z,95804.84
2023-02-11T10:20:39.641Z,95802.16
2023-02-11T10:21:11.172Z,95804.19
2023-02-11T10:21:43.008Z,95795.38
2023-02-11T10:22:17.153Z,95795.25
2023-02-11T10:22:49.729Z,95786.44
2023-02-11T10:23:22.774Z,95794.94
2023-02-11T10:23:54.273Z,95788.31
2023-02-11T10:24:27.062Z,95787.88
2023-02-11T10:25:00.156Z,95787.81
2023-02-11T10:25:32.816Z,95784.22
2023-02-11T10:26:05.369Z,95780.44
2023-02-11T10:26:38.100Z,95775.41
2023-02-11T10:27:10.954Z,95774.63
2023-02-11T10:27:42.559Z,95774.19
2023-02-11T10:28:15.656Z,95776.09
2023-02-11T10:28:48.977Z,95774.50
2023-02-11T10:29:20.462Z,95770.28
2023-02-11T10:29:51.917Z,95775.19
2023-02-11T10:30:23.350Z,95769.72
2023-02-11T10:30:56.305Z,95764.69
2023-02-11T10:31:29.096Z,95760.78
2023-02-11T10:32:00.886Z,95764.59
2023-02-11T10:32:33.418Z,95758.00
2023-02-11T10:33:06.245Z,95756.09
2023-02-11T10:33:39.302Z,95759.91
2023-02-11T10:34:11.370Z,95757.22
2023-02-11T10:34:43.907Z,95752.66
2023-02-11T10:35:16.778Z,95759.91
2023-02-11T10:35:48.237Z,95746.06
2023-02-11T10:36:19.782Z,95754.44
2023-02-11T10:36:52.401Z,95749.53
2023-02-11T10:37:23.869Z,95744.59
2023-02-11T10:37:55.804Z,95744.38
2023-02-11T10:38:27.187Z,95753.53
2023-02-11T10:38:58.664Z,95746.19
2023-02-11T10:39:30.067Z,95743.84
2023-02-11T10:40:03.052Z,95743.28
2023-02-11T10:40:35.632Z,95737.81
2023-02-11T10:41:07.589Z,95738.50
2023-02-11T10:41:40.258Z,95736.81
2023-02-11T10:42:11.676Z,95726.75
2023-02-11T10:42:43.322Z,95729.88
2023-02-11T10:43:16.054Z,95731.78
2023-02-11T10:43:47.519Z,95735.91
2023-02-11T10:44:19.794Z,95728.22
2023-02-11T10:44:51.287Z,95727.09
2023-02-11T10:45:22.703Z,95727.00
2023-02-11T10:45:55.845Z,95723.09
2023-02-11T10:46:29.260Z,95720.75
2023-02-11T10:47:00.613Z,95724.09
2023-02-11T10:47:32.084Z,95720.97
2023-02-11T10:48:03.613Z,95720.19
2023-02-11T10:48:35.294Z,95720.66
2023-02-11T10:49:07.166Z,95722.88
2023-02-11T10:49:39.090Z,95719.88
2023-02-11T10:50:13.423Z,95719.53
2023-02-11T10:50:47.293Z,95717.53
2023-02-11T10:51:20.216Z,95723.97
2023-02-11T10:51:53.174Z,95721.66
2023-02-11T10:52:29.204Z,95718.53
2023-02-11T10:53:02.863Z,95717.63
2023-02-11T10:53:35.801Z,95717.19
2023-02-11T10:54:07.981Z,95714.84
2023-02-11T10:54:40.679Z,95711.38
2023-02-11T10:55:14.459Z,95709.38
2023-02-11T10:55:46.955Z,95709.38
2023-02-11T10:56:19.291Z,95700.91
2023-02-11T10:56:52.852Z,95707.38
2023-02-11T10:57:25.395Z,95709.28
2023-02-11T10:57:58.514Z,95710.41
2023-02-11T11:06:34.588Z,95700.03
2023-02-11T11:07:06.118Z,95702.38
2023-02-11T11:07:38.059Z,95702.38
2023-02-11T11:08:09.878Z,95694.78
2023-02-11T11:08:41.624Z,95697.47
2023-02-11T11:09:13.224Z,95699.34
2023-02-11T11:09:44.903Z,95700.59
2023-02-11T11:10:16.494Z,95694.13
2023-02-11T11:10:48.206Z,95692.56
2023-02-11T11:11:20.747Z,95691.31
2023-02-11T11:11:53.808Z,95687.44
2023-02-11T11:12:26.879Z,95691.22
2023-02-11T11:12:59.839Z,95688.56
2023-02-11T11:13:32.404Z,95687.09
2023-02-11T11:14:05.308Z,95686.31
2023-02-11T11:14:36.781Z,95692.34
2023-02-11T11:15:09.786Z,95690.78
2023-02-11T11:15:45.136Z,95688.88
2023-02-11T11:16:19.483Z,95689.66
2023-02-11T11:16:52.473Z,95697.69
2023-02-11T11:17:25.335Z,95694.69
2023-02-11T11:18:15.379Z,95690.78
2023-02-11T11:18:51.145Z,95688.00
2023-02-11T11:19:24.143Z,95682.63
2023-02-11T11:19:57.373Z,95679.53
2023-02-11T11:20:30.411Z,95688.09
2023-02-11T11:21:03.415Z,95675.84
2023-02-11T11:21:36.438Z,95683.41
2023-02-11T11:22:08.861Z,95679.16
2023-02-11T11:22:41.867Z,95679.16
2023-02-11T11:23:14.789Z,95682.09
2023-02-11T11:23:46.253Z,95680.16
2023-02-11T11:24:19.317Z,95674.22
2023-02-11T11:24:52.187Z,95679.28
2023-02-11T11:25:25.340Z,95683.00
2023-02-11T11:25:58.162Z,95679.25
2023-02-11T11:26:31.129Z,95686.31
2023-02-11T11:27:04.159Z,95690.66
2023-02-11T11:27:37.021Z,95686.81
2023-02-11T11:28:10.422Z,95681.38
2023-02-11T11:28:43.273Z,95680.06
2023-02-11T11:29:16.154Z,95682.84
2023-02-11T11:29:49.035Z,95685.63
2023-02-11T12:01:33.236Z,95641.72
2023-02-11T12:02:08.436Z,95645.97
2023-02-11T12:02:41.680Z,95642.16
2023-02-11T12:14:52.072Z,95621.88
2023-02-11T12:15:24.929Z,95616.53
2023-02-11T12:16:03.795Z,95620.78
2023-02-11T12:16:36.665Z,95626.56
2023-02-11T12:17:09.734Z,95621.56
2023-02-11T12:17:42.547Z,95611.28
2023-02-11T12:18:15.403Z,95615.06
2023-02-11T12:18:47.608Z,95611.72
2023-02-11T12:19:20.796Z,95605.25
2023-02-11T12:23:28.237Z,95606.50
2023-02-11T12:24:01.282Z,95595.44
2023-02-11T12:24:33.884Z,95601.59
2023-02-11T12:37:27.227Z,95584.63
2023-02-11T12:38:00.540Z,95575.78
2023-02-11T12:38:35.905Z,95582.72
2023-02-11T12:39:08.778Z,95583.50
2023-02-11T12:39:41.174Z,95581.59
2023-02-11T12:40:14.055Z,95582.38
2023-02-11T12:40:47.010Z,95578.56
2023-02-11T12:41:19.850Z,95578.56
2023-02-11T12:41:52.850Z,95578.56
2023-02-11T12:42:25.901Z,95577.81
2023-02-11T13:05:21.623Z,95557.06
2023-02-11T13:05:54.527Z,95554.00
2023-02-11T13:06:27.353Z,95554.81
2023-02-11T13:06:59.919Z,95556.34
2023-02-11T13:07:32.404Z,95548.66
2023-02-11T13:08:05.310Z,95551.00
2023-02-11T13:08:38.317Z,95552.91
2023-02-11T13:09:11.409Z,95556.69
2023-02-11T13:09:44.221Z,95552.91
2023-02-11T13:10:17.137Z,95560.16
2023-02-11T13:10:50.762Z,95555.25
2023-02-11T13:11:23.926Z,95556.34
2023-02-11T13:11:57.676Z,95548.31
2023-02-11T13:12:30.596Z,95554.44
2023-02-11T13:13:03.581Z,95554.44
2023-02-11T13:13:36.514Z,95545.31
2023-02-11T13:14:09.501Z,95558.38
2023-02-11T13:14:42.622Z,95550.34
2023-02-11T13:15:15.645Z,95551.44
2023-02-11T13:28:15.534Z,95535.72
2023-02-11T13:28:51.076Z,95542.63
2023-02-11T13:29:23.956Z,95541.88
2023-02-11T13:29:57.000Z,95537.63
2023-02-11T13:30:30.128Z,95541.88
2023-02-11T13:31:03.435Z,95538.81
2023-02-11T13:31:36.141Z,95538.81
2023-02-11T13:32:09.125Z,95538.38
2023-02-11T13:33:31.737Z,95546.53
2023-02-11T13:34:04.737Z,95534.59
2023-02-11T13:34:37.738Z,95539.63
2023-02-11T13:35:10.762Z,95545.75
2023-02-11T13:35:43.794Z,95541.16
2023-02-11T13:36:16.928Z,95533.91
2023-02-11T13:36:50.026Z,95535.81
2023-02-11T13:37:22.989Z,95540.41
2023-02-11T13:41:30.646Z,95532.81
2023-02-11T13:42:03.260Z,95528.22
2023-02-11T13:42:36.236Z,95529.78
2023-02-11T14:18:57.717Z,95507.97
2023-02-11T14:19:30.633Z,95506.44
2023-02-11T14:20:03.668Z,95504.53
2023-02-11T14:25:44.549Z,95503.84
2023-02-11T14:26:19.839Z,95499.63
2023-02-11T14:26:52.781Z,95498.50
2023-02-11T14:27:25.786Z,95493.16
2023-02-11T14:27:58.908Z,95503.06
2023-02-11T14:28:31.774Z,95497.38
2023-02-11T14:29:04.829Z,95500.03
2023-02-11T14:29:37.858Z,95492.00
2023-02-11T14:30:10.898Z,95491.69
2023-02-11T14:30:43.978Z,95499.72
2023-02-11T14:37:30.749Z,95491.69
2023-02-11T14:38:03.845Z,95493.59
2023-02-11T14:38:36.815Z,95500.47
2023-02-11T14:39:09.786Z,95501.25
2023-02-11T14:39:42.774Z,95497.81
2023-02-11T14:40:15.714Z,95502.81
2023-02-11T14:40:48.783Z,95498.25
2023-02-11T14:41:22.022Z,95502.06
2023-02-11T14:56:03.502Z,95502.66
2023-02-11T14:56:35.968Z,95499.31
2023-02-11T14:57:08.866Z,95503.53
2023-02-11T15:23:39.647Z,95484.09
2023-02-11T15:54:19.036Z,95465.34
2023-02-11T15:54:51.679Z,95472.94
2023-02-11T15:55:24.776Z,95467.16
2023-02-11T15:55:57.687Z,95472.50
2023-02-11T15:56:30.771Z,95470.94
2023-02-11T16:15:48.843Z,95468.88
2023-02-11T16:16:21.864Z,95477.69
2023-02-11T16:16:54.593Z,95470.00
2023-02-11T16:17:27.578Z,95477.69
2023-02-11T16:18:00.327Z,95471.56
2023-02-11T16:27:19.804Z,95488.75
2023-02-11T16:47:27.926Z,95495.91
2023-02-11T16:48:00.926Z,95492.47
2023-02-11T16:48:33.512Z,95481.66
2023-02-11T16:49:06.308Z,95480.88
2023-02-11T17:03:04.072Z,95490.31
2023-02-11T17:03:37.081Z,95489.56
2023-02-11T17:04:10.120Z,95498.25
2023-02-11T17:04:43.293Z,95484.88
2023-02-11T17:20:17.944Z,95470.59
2023-02-11T17:20:51.343Z,95465.59
2023-02-11T17:21:24.412Z,95462.47
2023-02-11T17:21:57.535Z,95458.25
2023-02-11T17:22:30.559Z,95456.25
2023-02-11T17:23:03.550Z,95463.84
2023-02-11T17:23:36.185Z,95463.84
2023-02-11T17:24:09.185Z,95462.41
2023-02-11T17:24:42.195Z,95457.41
2023-02-11T17:25:15.203Z,95459.63
2023-02-11T17:25:48.198Z,95465.00
2023-02-11T18:31:54.106Z,95489.28
2023-02-11T18:32:25.597Z,95489.63
2023-02-11T18:32:57.058Z,95485.81
2023-02-11T18:44:02.099Z,95465.53
2023-02-11T18:44:34.994Z,95457.50
2023-02-11T18:45:07.455Z,95456.72
2023-02-11T18:45:40.440Z,95459.06
2023-02-11T18:46:13.639Z,95461.72
2023-02-11T18:46:46.647Z,95459.44
2023-02-11T18:47:19.780Z,95460.84
2023-02-11T18:47:52.926Z,95454.44
2023-02-11T18:48:25.760Z,95457.56
2023-02-11T18:48:58.719Z,95456.53
2023-02-11T18:51:09.929Z,95458.50
2023-02-11T18:51:44.290Z,95463.88
2023-02-11T18:52:17.369Z,95460.84
2023-02-11T18:52:51.913Z,95454.34
2023-02-11T18:53:24.971Z,95458.19
2023-02-11T18:53:58.132Z,95457.41
2023-02-11T18:54:31.187Z,95455.50
2023-02-11T18:55:04.504Z,95460.09
2023-02-11T18:55:38.117Z,95454.72
2023-02-11T18:56:11.118Z,95453.25
2023-02-11T18:56:47.327Z,95454.34
2023-02-11T18:57:20.319Z,95448.66
2023-02-11T18:57:52.953Z,95449.81
2023-02-11T18:58:28.046Z,95458.28
2023-02-11T18:59:01.216Z,95459.81
2023-02-11T19:02:02.439Z,95459.81
2023-02-11T19:02:35.461Z,95447.56
2023-02-11T19:03:08.480Z,95456.28
2023-02-11T19:03:41.442Z,95451.69
2023-02-11T19:04:14.448Z,95453.59
2023-02-11T19:07:15.372Z,95456.59
2023-02-11T19:07:46.797Z,95453.59
2023-02-11T19:08:19.870Z,95454.72
2023-02-11T19:08:52.720Z,95459.66
2023-02-11T19:09:26.598Z,95454.28
2023-02-11T19:10:48.691Z,95457.31
2023-02-11T19:11:21.708Z,95455.84
2023-02-11T19:11:54.760Z,95458.94
2023-02-11T19:12:27.839Z,95460.09
2023-02-11T19:13:00.895Z,95450.47
2023-02-11T19:13:33.435Z,95452.03
2023-02-11T19:14:07.579Z,95449.72
2023-02-11T19:14:40.551Z,95453.50
2023-02-11T19:18:31.449Z,95453.00
2023-02-11T19:19:04.893Z,95456.88
2023-02-11T19:19:38.000Z,95458.41
2023-02-11T19:20:11.065Z,95457.66
2023-02-11T19:20:44.538Z,95463.78
2023-02-11T19:21:17.623Z,95458.41
2023-02-11T19:21:51.354Z,95461.09
2023-02-11T19:22:24.419Z,95455.75
2023-02-11T19:22:57.480Z,95458.78
2023-02-11T19:23:30.544Z,95459.91
2023-02-11T19:24:03.789Z,95456.44
2023-02-11T19:24:36.733Z,95459.13
2023-02-11T19:25:09.857Z,95457.22
2023-02-11T19:25:42.858Z,95453.00
2023-02-11T19:28:43.110Z,95449.53
2023-02-11T19:29:15.937Z,95446.06
2023-02-11T19:29:49.033Z,95449.97
2023-02-11T19:30:22.163Z,95444.59
2023-02-11T19:30:55.402Z,95448.84
2023-02-11T19:33:10.056Z,95441.69
2023-02-11T19:33:43.786Z,95438.66
2023-02-11T19:34:16.963Z,95441.69
2023-02-11T19:34:50.028Z,95440.91
2023-02-11T19:35:23.009Z,95439.75
2023-02-11T19:35:55.992Z,95439.75
2023-02-11T19:41:25.628Z,95433.63
2023-02-11T19:42:46.326Z,95428.63
2023-02-11T19:43:20.296Z,95440.09
2023-02-11T19:43:53.330Z,95437.44
2023-02-11T19:44:25.936Z,95430.19
2023-02-11T19:44:58.973Z,95428.63
2023-02-11T19:45:31.751Z,95433.97
2023-02-11T19:46:04.795Z,95425.16
2023-02-11T19:46:37.396Z,95434.75
2023-02-11T19:48:47.414Z,95430.53
2023-02-11T19:49:20.537Z,95424.41
2023-02-11T19:49:53.613Z,95428.19
2023-02-11T19:50:26.714Z,95429.75
2023-02-11T19:50:59.333Z,95435.13
2023-02-11T19:51:31.878Z,95427.06
2023-02-11T19:59:27.605Z,95422.31
2023-02-11T20:00:00.737Z,95425.78
2023-02-11T20:00:33.990Z,95418.84
2023-02-11T20:01:07.066Z,95415.41
2023-02-11T20:01:40.142Z,95427.66
2023-02-11T20:02:13.646Z,95420.06
2023-02-11T20:02:45.261Z,95423.09
2023-02-11T20:03:18.285Z,95426.56
2023-02-11T20:03:51.665Z,95421.19
2023-02-11T20:04:24.349Z,95414.63
2023-02-11T20:04:57.439Z,95411.16
2023-02-11T20:05:30.494Z,95416.53
2023-02-11T20:06:04.675Z,95413.94
2023-02-11T20:06:37.740Z,95418.94
2023-02-11T20:07:10.670Z,95414.72
2023-02-11T20:08:33.095Z,95414.38
2023-02-11T20:09:06.144Z,95413.25
2023-02-11T20:09:39.189Z,95409.28
2023-02-11T20:10:12.269Z,95413.41
2023-02-11T20:10:45.181Z,95403.84
2023-02-11T20:11:18.160Z,95408.75
2023-02-11T20:11:51.078Z,95406.09
2023-02-11T20:14:50.910Z,95412.81
2023-02-11T20:15:23.992Z,95417.38
2023-02-11T20:15:56.974Z,95403.66
2023-02-11T20:16:46.170Z,95407.91
2023-02-11T20:17:21.704Z,95411.69
2023-02-11T20:20:22.102Z,95401.25
2023-02-11T20:20:55.216Z,95397.44
2023-02-11T20:21:28.289Z,95401.25
2023-02-11T20:22:01.579Z,95399.34
2023-02-11T20:22:34.127Z,95398.56
2023-02-11T20:23:07.453Z,95397.34
2023-02-11T20:23:40.568Z,95404.94
2023-02-11T20:24:13.546Z,95407.63
2023-02-11T20:24:46.645Z,95409.09
2023-02-11T20:25:19.644Z,95400.28
2023-02-11T20:25:52.887Z,95399.50
2023-02-11T20:26:26.227Z,95410.22
2023-02-11T20:26:59.282Z,95410.56
2023-02-11T20:27:31.961Z,95409.34
2023-02-11T20:28:04.926Z,95414.69
2023-02-11T20:31:05.139Z,95407.53
2023-02-11T20:31:40.266Z,95404.84
2023-02-11T20:32:13.536Z,95400.28
2023-02-11T20:32:45.148Z,95401.06
2023-02-11T20:33:18.231Z,95398.38
2023-02-11T20:37:07.029Z,95389.22
2023-02-11T20:37:42.272Z,95398.72
2023-02-11T20:38:17.018Z,95388.34
2023-02-11T20:38:48.461Z,95389.06
2023-02-11T20:39:21.031Z,95386.38
2023-02-11T20:39:54.066Z,95389.41
2023-02-11T20:40:26.929Z,95390.16
2023-02-11T20:40:59.933Z,95384.13
2023-02-11T20:41:32.554Z,95389.84
2023-02-11T20:42:05.786Z,95386.47
2023-02-11T20:42:38.750Z,95379.97
2023-02-11T20:43:11.805Z,95381.88
2023-02-11T20:44:33.757Z,95374.19
2023-02-11T20:45:05.854Z,95381.88
2023-02-11T20:45:38.995Z,95378.78
2023-02-11T20:46:12.081Z,95380.31
2023-02-11T20:46:45.203Z,95367.31
2023-02-11T20:47:18.281Z,95371.84
2023-02-11T20:47:51.581Z,95371.53
2023-02-11T20:48:24.617Z,95373.00
2023-02-11T20:56:20.724Z,95364.09
2023-02-11T20:56:53.878Z,95366.44
2023-02-11T20:57:26.977Z,95367.22
2023-02-11T20:57:59.991Z,95367.22
2023-02-11T20:58:32.570Z,95369.19
2023-02-11T20:59:05.378Z,95360.47
2023-02-11T20:59:38.556Z,95365.81
2023-02-11T21:01:00.929Z,95362.72
2023-02-11T21:01:33.877Z,95368.84
2023-02-11T21:02:06.997Z,95366.94
2023-02-11T21:02:40.006Z,95360.03
2023-02-11T21:03:13.216Z,95360.72
2023-02-11T21:03:44.817Z,95360.03
2023-02-11T21:04:17.859Z,95363.16
2023-02-11T21:08:09.047Z,95355.47
2023-02-11T21:08:42.026Z,95358.13
2023-02-11T21:09:15.067Z,95352.44
2023-02-11T21:09:48.215Z,95353.22
2023-02-11T21:12:49.780Z,95337.41
2023-02-11T21:13:24.917Z,95331.22
2023-02-11T21:13:57.933Z,95337.00
2023-02-11T21:14:31.173Z,95333.50
2023-02-11T21:15:53.916Z,95331.22
2023-02-11T21:16:27.393Z,95334.22
2023-02-11T21:17:00.382Z,95333.88
2023-02-11T21:17:33.043Z,95321.59
2023-02-11T21:18:06.174Z,95322.38
2023-02-11T21:18:39.242Z,95330.41
2023-02-11T21:19:12.245Z,95327.31
2023-02-11T21:19:45.357Z,95328.44
2023-02-11T21:20:18.860Z,95322.31
2023-02-11T21:20:51.961Z,95328.31
2023-02-11T21:21:24.859Z,95324.16
2023-02-11T21:21:57.911Z,95320.41
2023-02-11T21:22:31.089Z,95321.19
2023-02-11T21:23:04.168Z,95315.81
2023-02-11T21:23:37.173Z,95318.50
2023-02-11T21:24:10.320Z,95316.50
2023-02-11T21:24:43.430Z,95319.94
2023-02-11T21:25:16.176Z,95318.03
2023-02-11T21:30:43.735Z,95309.91
2023-02-11T21:31:16.875Z,95316.84
2023-02-11T21:31:49.686Z,95308.38
2023-02-11T21:32:22.719Z,95308.03
2023-02-11T21:32:55.761Z,95310.72
2023-02-11T21:33:28.689Z,95319.50
2023-02-11T21:34:01.441Z,95304.22
2023-02-11T21:34:35.134Z,95312.25
2023-02-11T21:35:08.226Z,95313.41
2023-02-11T21:35:41.279Z,95313.72
2023-02-11T21:36:14.712Z,95315.28
2023-02-11T21:36:47.726Z,95298.44
2023-02-11T21:37:20.832Z,95312.59
2023-02-11T21:37:53.880Z,95316.06
2023-02-11T21:38:26.903Z,95305.38
2023-02-11T21:38:59.933Z,95311.06
2023-02-11T21:39:32.552Z,95301.88
2023-02-11T21:40:05.571Z,95311.50
2023-02-11T21:40:38.565Z,95306.91
2023-02-11T21:42:48.574Z,95307.34
2023-02-11T21:43:21.590Z,95313.41
2023-02-11T21:43:54.570Z,95315.69
2023-02-11T21:44:27.642Z,95315.28
2023-02-11T21:45:00.571Z,95307.25
2023-02-11T21:45:33.125Z,95317.28
2023-02-11T21:46:06.009Z,95317.59
2023-02-11T21:50:44.228Z,95324.09
2023-02-11T21:51:17.423Z,95314.84
2023-02-11T21:51:50.823Z,95316.41
2023-02-11T21:52:23.864Z,95314.50
2023-02-11T21:52:56.970Z,95309.91